Contact Us:
Email: info@sawbill.com
Phone: (218)663-7150
Fax: (218)663-7980
Mail: 4620 Sawbill Trail
Box 2129
Tofte, MN 55615


Powered by
Movable Type 3.15
 
Sawbill Weather History Archives: March 2010
Current Sawbill Weather History | « February 2010 | April 2010 »


Date

High
Temperature

Low
Temperature

Barometric
Pressure

Relative
Humidity 7AM

9 AM
Temperature

Moisture

Snow

3/31/10 69 32 30.09 70% 37 0
3/30/10 54 41 29.71 53% 52 0
3/29/10 45 32 29.85 51% 41 0
3/28/10 39 27 30.18 80% 29 0
3/27/10 38 27 30.18 85% 27 .12"
3/26/10 33 9 30.15 87% 33 .09" Trace
3/25/10 20 5 30.27 40% 9 0
3/24/10 47 5 30.42 49% 5 Trace Trace
3/23/10 51 24 30.30 58% 25 0
3/22/10 48 33 30.28 52% 33 0
3/21/10 44 24 30.18 52% 36 0
3/20/10 33 18 30.18 65% 24 0
3/19/10 29 13 30.42 53% 14 0
3/18/10 52 25 30.18 63% 25 Trace Trace
3/17/10 55 34 29.97 75% 38 0
3/16/10 55 33 30.39 95% 35 .02"
3/15/10 58 31 30.47 78% 41 0
3/14/10 57 31 30.45 90% 31 0
3/13/10 44 35 30.33 98% 38 0
3/12/10 44 35 30.04 98% 38 Trace
3/11/10 42 37 30.00 98% 38 .2"
3/10/10 47 32 30.00 98% 37 .1"
3/9/10 49 28 29.97 89% 32 0
3/8/10 50 29 30.09 98% 37 0
3/7/10 46 26 30.24 80% 28 0
3/6/10 47 27 30.33 69% 29 0
3/5/10 40 15 30.47 61% 31 0
3/4/10 33 12 30.45 71% 15 0
3/3/10 38 10 30.39 58% 13 0
3/2/10 37 9 30.33 61% 10 0
3/1/10 32 5 30.36 68% 8 0
 


Home I Trip Planning I Rentals and Outfitting I Reservations I Campgrounds I Sawbill Store I Sawbill News I Contact

© 1997 - 2017, Sawbill Canoe Outfitters, Inc. I Privacy Policy